Time;durP1;ratioP1;P1;durP2;ratioP2;P2;SDS_P1;SDS_P2;PMS_P1;PMS_P2;Temp;Humidity;BMP_temperature;BMP_pressure;BME280_temperature;BME280_humidity;BME280_pressure;Samples;Min_cycle;Max_cycle;Signal;HPM_P1;HPM_P2
2021/03/31 00:01:29;;;;;;;7.77;6.00;;;14.00;52.20;;;;;;5077032;28;20444;-75
2021/03/31 00:03:56;;;;;;;6.43;4.80;;;14.00;52.30;;;;;;5076817;28;20491;-75
2021/03/31 00:06:23;;;;;;;7.27;4.43;;;13.80;51.10;;;;;;5076892;28;20428;-75
2021/03/31 00:08:49;;;;;;;5.20;4.23;;;13.70;51.30;;;;;;5076531;28;20463;-75
2021/03/31 00:11:17;;;;;;;7.83;4.60;;;13.60;51.80;;;;;;5076930;28;20444;-75
2021/03/31 00:13:43;;;;;;;6.23;4.57;;;13.50;52.10;;;;;;5077275;28;20464;-75
2021/03/31 00:16:10;;;;;;;4.90;4.33;;;13.50;52.40;;;;;;5077411;28;20444;-75
2021/03/31 00:18:36;;;;;;;9.80;5.27;;;13.40;52.60;;;;;;5077259;28;20451;-75
2021/03/31 00:21:03;;;;;;;5.80;5.20;;;13.40;52.90;;;;;;5077126;28;20433;-75
2021/03/31 00:23:31;;;;;;;6.47;4.93;;;13.30;52.90;;;;;;5076717;28;20455;-75
2021/03/31 00:25:58;;;;;;;8.07;5.20;;;13.30;53.10;;;;;;5076711;28;20494;-75
2021/03/31 00:28:24;;;;;;;8.00;4.87;;;13.20;53.10;;;;;;5076556;28;20451;-74
2021/03/31 00:30:52;;;;;;;7.13;4.80;;;13.20;53.50;;;;;;5076238;28;20444;-75
2021/03/31 00:33:18;;;;;;;6.10;5.50;;;13.20;53.40;;;;;;5076514;28;20440;-75
2021/03/31 00:35:45;;;;;;;6.67;5.70;;;13.20;53.60;;;;;;5076580;28;20440;-75
2021/03/31 00:38:11;;;;;;;10.00;5.87;;;13.20;53.80;;;;;;5076446;28;20494;-74
2021/03/31 00:40:40;;;;;;;7.40;5.53;;;13.20;53.80;;;;;;5076363;28;20448;-75
2021/03/31 00:43:07;;;;;;;7.47;5.40;;;13.20;53.80;;;;;;5076553;28;20425;-75
2021/03/31 00:45:34;;;;;;;6.93;5.13;;;13.20;54.10;;;;;;5076193;28;20476;-75
2021/03/31 00:48:00;;;;;;;6.70;5.57;;;13.20;53.90;;;;;;5075847;28;20444;-74
2021/03/31 00:50:27;;;;;;;7.80;5.50;;;13.10;54.00;;;;;;5076143;28;20448;-75
2021/03/31 00:52:55;;;;;;;11.33;5.10;;;13.10;54.00;;;;;;5075836;28;20436;-75
2021/03/31 00:55:25;;;;;;;5.90;4.60;;;13.10;54.10;;;;;;5075602;28;20483;-75
2021/03/31 00:57:52;;;;;;;8.93;5.10;;;13.00;54.10;;;;;;5075988;28;20440;-74
2021/03/31 01:00:19;;;;;;;5.17;4.67;;;13.00;54.10;;;;;;5075733;28;20930;-75
2021/03/31 01:02:46;;;;;;;5.43;4.90;;;13.10;54.30;;;;;;5075996;28;20810;-75
2021/03/31 01:05:15;;;;;;;7.17;5.17;;;13.10;54.60;;;;;;5074824;28;20476;-75
2021/03/31 01:07:41;;;;;;;8.67;5.20;;;13.10;54.50;;;;;;5075508;28;20457;-75
2021/03/31 01:10:10;;;;;;;8.20;5.20;;;13.10;54.60;;;;;;5075689;28;20444;-75
2021/03/31 01:12:53;;;;;;;9.87;5.50;;;13.10;54.70;;;;;;5075756;28;20786;-75
2021/03/31 01:15:24;;;;;;;7.67;5.70;;;13.10;54.70;;;;;;5075331;28;20461;-74
2021/03/31 01:17:57;;;;;;;7.03;6.20;;;13.10;54.90;;;;;;5075664;28;20451;-75
2021/03/31 01:21:09;;;;;;;11.00;6.77;;;13.20;55.10;;;;;;5075290;28;20436;-75
2021/03/31 01:24:24;;;;;;;8.17;5.37;;;13.10;55.40;;;;;;5075648;28;20460;-74
2021/03/31 01:26:55;;;;;;;9.73;6.63;;;13.10;54.90;;;;;;5075138;28;20931;-74
2021/03/31 01:29:33;;;;;;;9.50;6.07;;;13.10;55.10;;;;;;5075390;28;20421;-75
2021/03/31 01:32:09;;;;;;;8.07;5.87;;;13.10;55.00;;;;;;5075047;28;20923;-75
2021/03/31 01:34:42;;;;;;;12.37;5.70;;;13.10;54.90;;;;;;5075323;28;20459;-75
2021/03/31 01:37:14;;;;;;;9.37;6.37;;;13.10;54.90;;;;;;5074936;28;20421;-74
2021/03/31 01:39:42;;;;;;;9.57;6.93;;;13.10;54.90;;;;;;5075700;28;20432;-74
2021/03/31 01:42:10;;;;;;;7.10;6.13;;;13.10;55.00;;;;;;5075092;28;20453;-74
2021/03/31 01:44:40;;;;;;;7.63;6.27;;;13.10;55.20;;;;;;5074875;28;20499;-75
2021/03/31 01:47:08;;;;;;;6.67;5.70;;;13.10;55.00;;;;;;5075040;28;20455;-74
2021/03/31 01:49:35;;;;;;;10.13;5.80;;;13.00;54.90;;;;;;5074931;28;20437;-75
2021/03/31 01:52:06;;;;;;;8.20;5.40;;;13.00;55.00;;;;;;5074608;28;20935;-74
2021/03/31 01:54:33;;;;;;;6.23;5.27;;;12.90;55.00;;;;;;5074835;28;20480;-75
2021/03/31 01:57:01;;;;;;;6.63;5.60;;;12.80;54.60;;;;;;5074787;28;20854;-75
2021/03/31 01:59:28;;;;;;;6.10;4.90;;;12.80;54.80;;;;;;5074712;28;20519;-74
2021/03/31 02:01:56;;;;;;;7.23;4.80;;;12.70;54.90;;;;;;5074337;28;20935;-75
2021/03/31 02:04:23;;;;;;;8.97;6.47;;;12.70;54.60;;;;;;5074502;28;20555;-75
2021/03/31 02:06:51;;;;;;;7.70;5.50;;;12.70;54.90;;;;;;5074348;28;20469;-74
2021/03/31 02:09:18;;;;;;;9.40;5.90;;;12.70;55.40;;;;;;5074612;28;20436;-74
2021/03/31 02:11:46;;;;;;;9.43;6.50;;;12.60;55.30;;;;;;5074494;28;20429;-75
2021/03/31 02:14:14;;;;;;;8.67;6.10;;;12.60;55.50;;;;;;5074363;28;20453;-74
2021/03/31 02:16:43;;;;;;;8.20;6.43;;;12.70;55.70;;;;;;5073388;28;20448;-75
2021/03/31 02:19:12;;;;;;;8.47;5.70;;;12.60;55.50;;;;;;5074015;28;20934;-74
2021/03/31 02:21:40;;;;;;;6.93;4.80;;;12.60;55.40;;;;;;5073976;28;20451;-75
2021/03/31 02:24:07;;;;;;;7.33;4.80;;;12.60;55.20;;;;;;5074203;28;20464;-74
2021/03/31 02:26:34;;;;;;;5.90;5.30;;;12.50;55.20;;;;;;5074242;28;20455;-74
2021/03/31 02:29:00;;;;;;;9.33;5.27;;;12.40;55.40;;;;;;5073910;28;20946;-74
2021/03/31 02:31:27;;;;;;;6.90;5.30;;;12.40;55.20;;;;;;5073762;28;20440;-75
2021/03/31 02:33:55;;;;;;;6.27;5.00;;;12.30;55.20;;;;;;5073940;28;20467;-74
2021/03/31 02:36:22;;;;;;;7.50;6.00;;;12.30;55.70;;;;;;5074050;28;20451;-74
2021/03/31 02:38:50;;;;;;;7.93;6.37;;;12.30;55.70;;;;;;5073960;28;20488;-75
2021/03/31 02:41:17;;;;;;;12.43;5.73;;;12.30;56.00;;;;;;5073665;28;20938;-74
2021/03/31 02:43:49;;;;;;;10.70;5.90;;;12.30;56.30;;;;;;5073815;28;20476;-74
2021/03/31 02:46:20;;;;;;;9.63;6.57;;;12.20;56.20;;;;;;5073832;28;20461;-74
2021/03/31 02:48:48;;;;;;;8.70;6.10;;;12.20;56.50;;;;;;5073593;28;20803;-74
2021/03/31 02:51:15;;;;;;;7.63;6.57;;;12.20;56.60;;;;;;5073744;28;20474;-74
2021/03/31 02:53:42;;;;;;;8.00;6.63;;;12.20;56.60;;;;;;5073762;28;20467;-74
2021/03/31 02:56:09;;;;;;;10.33;6.20;;;12.20;56.60;;;;;;5073775;28;20494;-74
2021/03/31 02:58:38;;;;;;;14.47;6.30;;;12.20;56.50;;;;;;5073473;28;20991;-74
2021/03/31 03:01:06;;;;;;;8.60;6.30;;;12.20;56.50;;;;;;5073773;28;20483;-74
2021/03/31 03:03:33;;;;;;;9.67;6.10;;;12.20;56.50;;;;;;5073552;28;20448;-74
2021/03/31 03:06:00;;;;;;;12.43;7.57;;;12.20;56.60;;;;;;5073222;28;21025;-75
2021/03/31 03:08:27;;;;;;;10.30;7.30;;;12.20;56.40;;;;;;5073204;28;20453;-74
2021/03/31 03:10:57;;;;;;;8.90;6.40;;;12.20;56.50;;;;;;5073622;28;20441;-74
2021/03/31 03:13:24;;;;;;;8.30;6.23;;;12.10;56.60;;;;;;5073535;28;20467;-74
2021/03/31 03:15:51;;;;;;;9.47;6.50;;;12.10;56.50;;;;;;5073564;28;20440;-74
2021/03/31 03:18:18;;;;;;;9.70;6.87;;;12.10;56.70;;;;;;5073285;28;20994;-74
2021/03/31 03:20:44;;;;;;;7.40;6.10;;;12.10;56.60;;;;;;5073160;28;20938;-75
2021/03/31 03:23:11;;;;;;;9.20;6.57;;;12.10;56.80;;;;;;5073477;28;20449;-74
2021/03/31 03:25:37;;;;;;;9.37;6.87;;;12.10;56.80;;;;;;5073318;28;20831;-74
2021/03/31 03:28:05;;;;;;;9.90;7.00;;;12.10;56.90;;;;;;5073011;28;20444;-75
2021/03/31 03:30:33;;;;;;;9.20;7.27;;;12.10;56.90;;;;;;5073125;28;20972;-74
2021/03/31 03:32:59;;;;;;;8.97;6.80;;;12.10;57.00;;;;;;5073556;28;20447;-74
2021/03/31 03:35:28;;;;;;;14.00;7.33;;;12.10;57.10;;;;;;5073414;28;20465;-74
2021/03/31 03:37:55;;;;;;;13.73;7.10;;;12.10;57.10;;;;;;5073427;28;20445;-74
2021/03/31 03:40:25;;;;;;;8.10;7.00;;;12.10;57.20;;;;;;5073275;28;20445;-75
2021/03/31 03:42:52;;;;;;;10.10;7.70;;;12.10;57.30;;;;;;5073224;28;20448;-74
2021/03/31 03:45:21;;;;;;;10.70;7.23;;;12.00;57.10;;;;;;5073099;28;20476;-74
2021/03/31 03:47:48;;;;;;;8.20;6.60;;;12.00;57.30;;;;;;5073166;28;20447;-74
2021/03/31 03:50:15;;;;;;;11.77;7.67;;;11.90;57.30;;;;;;5073160;28;20452;-74
2021/03/31 03:52:44;;;;;;;9.00;7.33;;;11.90;57.40;;;;;;5073123;28;20452;-74
2021/03/31 03:55:14;;;;;;;11.97;7.80;;;11.90;57.50;;;;;;5073620;28;20465;-75
2021/03/31 03:57:40;;;;;;;13.67;7.20;;;11.80;57.40;;;;;;5073132;28;20436;-74
2021/03/31 04:00:17;;;;;;;10.17;7.17;;;11.80;57.60;;;;;;5073120;28;20498;-74
2021/03/31 04:02:43;;;;;;;12.27;7.80;;;11.80;57.80;;;;;;5073117;28;20482;-74
2021/03/31 04:05:11;;;;;;;12.93;7.80;;;11.70;57.80;;;;;;5072888;28;20483;-74
2021/03/31 04:07:37;;;;;;;10.03;7.60;;;11.70;57.90;;;;;;5072745;28;20452;-74
2021/03/31 04:10:06;;;;;;;9.70;7.33;;;11.70;57.90;;;;;;5072613;28;20966;-74
2021/03/31 04:12:34;;;;;;;9.80;7.17;;;11.60;58.10;;;;;;5072975;28;20452;-74
2021/03/31 04:15:00;;;;;;;10.73;7.67;;;11.60;58.20;;;;;;5072882;28;20463;-74
2021/03/31 04:17:29;;;;;;;9.80;7.33;;;11.50;58.10;;;;;;5072963;28;20455;-74
2021/03/31 04:19:55;;;;;;;9.07;6.90;;;11.50;58.20;;;;;;5072904;28;20459;-74
2021/03/31 04:22:22;;;;;;;8.50;7.60;;;11.40;58.00;;;;;;5072859;28;20449;-75
2021/03/31 04:24:48;;;;;;;9.53;5.97;;;11.40;58.20;;;;;;5072699;28;20488;-75
2021/03/31 04:27:17;;;;;;;10.97;7.20;;;11.40;58.50;;;;;;5072760;28;20445;-75
2021/03/31 04:29:46;;;;;;;7.43;6.37;;;11.30;58.30;;;;;;5072819;28;20498;-74
2021/03/31 04:32:15;;;;;;;6.23;5.37;;;11.30;58.40;;;;;;5072764;28;20448;-74
2021/03/31 04:34:41;;;;;;;9.63;5.30;;;11.20;58.50;;;;;;5072727;28;20461;-74
2021/03/31 04:37:08;;;;;;;8.07;5.00;;;11.20;58.10;;;;;;5072689;28;20448;-74
2021/03/31 04:39:36;;;;;;;7.97;5.50;;;11.20;57.80;;;;;;5073601;28;20938;-75
2021/03/31 04:42:03;;;;;;;8.03;4.83;;;11.10;57.70;;;;;;5075874;28;20841;-75
2021/03/31 04:44:30;;;;;;;7.13;4.90;;;11.00;57.80;;;;;;5076100;28;20534;-75
2021/03/31 04:46:56;;;;;;;7.20;5.70;;;11.00;58.00;;;;;;5075823;28;20836;-75
2021/03/31 04:49:22;;;;;;;10.73;5.67;;;11.00;58.20;;;;;;5076095;28;20436;-74
2021/03/31 04:51:48;;;;;;;7.90;6.23;;;10.90;58.20;;;;;;5075730;28;20818;-74
2021/03/31 04:54:14;;;;;;;8.00;6.20;;;10.90;58.50;;;;;;5075983;28;20465;-74
2021/03/31 04:56:41;;;;;;;6.67;5.43;;;10.90;58.80;;;;;;5075977;28;20453;-74
2021/03/31 04:59:07;;;;;;;5.10;4.60;;;10.90;58.80;;;;;;5075750;28;20866;-74
2021/03/31 05:01:34;;;;;;;7.57;5.70;;;10.80;58.40;;;;;;5076038;28;20496;-74
2021/03/31 05:04:00;;;;;;;6.37;5.77;;;10.70;58.50;;;;;;5075566;28;20974;-74
2021/03/31 05:06:26;;;;;;;5.40;4.87;;;10.60;58.40;;;;;;5075708;28;20602;-74
2021/03/31 05:08:52;;;;;;;8.13;5.97;;;10.60;58.50;;;;;;5075742;28;20510;-74
2021/03/31 05:11:19;;;;;;;8.27;5.07;;;10.60;58.80;;;;;;5075651;28;20448;-74
2021/03/31 05:13:45;;;;;;;8.27;5.27;;;10.60;59.00;;;;;;5075521;28;20469;-74
2021/03/31 05:16:11;;;;;;;7.07;5.33;;;10.60;59.00;;;;;;5075239;28;20786;-74
2021/03/31 05:18:38;;;;;;;8.87;6.13;;;10.60;58.90;;;;;;5075560;28;20440;-75
2021/03/31 05:21:05;;;;;;;10.03;6.57;;;10.60;59.30;;;;;;5075490;28;20444;-74
2021/03/31 05:23:31;;;;;;;9.40;6.23;;;10.60;59.50;;;;;;5075465;28;20426;-74
2021/03/31 05:25:57;;;;;;;8.13;5.70;;;10.60;59.60;;;;;;5075021;28;20474;-74
2021/03/31 05:28:24;;;;;;;5.57;4.93;;;10.50;59.10;;;;;;5075453;28;20454;-74
2021/03/31 05:30:50;;;;;;;13.80;5.57;;;10.50;59.00;;;;;;5075394;28;20447;-75
2021/03/31 05:33:16;;;;;;;10.13;6.60;;;10.50;59.30;;;;;;5075352;28;20468;-75
2021/03/31 05:35:43;;;;;;;8.77;6.10;;;10.50;59.80;;;;;;5075307;28;20451;-75
2021/03/31 05:38:09;;;;;;;6.80;6.10;;;10.50;59.80;;;;;;5075353;28;20458;-75
2021/03/31 05:40:36;;;;;;;7.30;5.83;;;10.50;59.80;;;;;;5076401;28;20456;-76
2021/03/31 05:43:02;;;;;;;10.40;6.70;;;10.50;60.00;;;;;;5074947;28;20949;-75
2021/03/31 05:45:29;;;;;;;6.97;5.77;;;10.50;60.50;;;;;;5074903;28;20848;-75
2021/03/31 05:47:55;;;;;;;7.50;5.60;;;10.50;60.20;;;;;;5075000;28;20469;-75
2021/03/31 05:50:22;;;;;;;5.40;4.90;;;10.40;59.90;;;;;;5074669;28;20425;-75
2021/03/31 05:52:49;;;;;;;8.97;5.10;;;10.40;60.00;;;;;;5074839;28;20449;-74
2021/03/31 05:55:17;;;;;;;7.40;5.07;;;10.40;60.10;;;;;;5074772;28;20467;-74
2021/03/31 05:57:44;;;;;;;7.13;4.70;;;10.40;59.90;;;;;;5074511;28;20455;-73
2021/03/31 06:00:12;;;;;;;11.40;5.00;;;10.40;59.90;;;;;;5074744;28;20451;-74
2021/03/31 06:02:39;;;;;;;5.87;5.20;;;10.40;60.40;;;;;;5074762;28;20432;-74
2021/03/31 06:05:07;;;;;;;13.93;5.60;;;10.40;60.30;;;;;;5074503;28;20499;-74
2021/03/31 06:07:33;;;;;;;9.77;5.83;;;10.40;60.70;;;;;;5074304;28;20467;-75
2021/03/31 06:10:10;;;;;;;6.67;6.00;;;10.50;61.30;;;;;;5074240;28;20950;-74
2021/03/31 06:12:38;;;;;;;10.07;6.10;;;10.50;60.90;;;;;;5075076;28;20433;-74
2021/03/31 06:15:15;;;;;;;6.83;5.57;;;10.60;61.50;;;;;;5074348;28;20517;-74
2021/03/31 06:17:46;;;;;;;9.00;5.70;;;10.50;61.60;;;;;;5073955;28;20906;-74
2021/03/31 06:20:13;;;;;;;6.27;5.37;;;10.60;61.80;;;;;;5074367;28;20492;-74
2021/03/31 06:22:51;;;;;;;8.43;5.17;;;10.60;61.80;;;;;;5074251;28;20443;-74
2021/03/31 06:25:21;;;;;;;11.27;6.40;;;10.60;62.30;;;;;;5074144;28;20483;-74
2021/03/31 06:27:53;;;;;;;12.83;6.17;;;10.70;62.70;;;;;;5074230;28;20470;-74
2021/03/31 06:30:23;;;;;;;13.93;5.77;;;10.70;62.70;;;;;;5074191;28;20433;-74
2021/03/31 06:32:52;;;;;;;8.97;6.30;;;10.80;63.00;;;;;;5074122;28;20433;-75
2021/03/31 06:35:23;;;;;;;10.57;7.60;;;10.90;63.20;;;;;;5073951;28;20469;-75
2021/03/31 06:37:49;;;;;;;7.70;6.50;;;11.00;63.00;;;;;;5073778;28;20439;-75
2021/03/31 06:40:33;;;;;;;16.80;7.73;;;11.10;62.80;;;;;;5073944;28;20455;-74
2021/03/31 06:43:14;;;;;;;13.60;10.00;;;11.20;62.50;;;;;;5073952;28;20432;-75
2021/03/31 06:45:49;;;;;;;15.07;9.77;;;11.30;62.40;;;;;;5073479;28;20982;-74
2021/03/31 06:48:15;;;;;;;12.87;9.53;;;11.40;62.20;;;;;;5073835;28;20432;-74
2021/03/31 06:50:42;;;;;;;11.73;8.83;;;11.60;61.30;;;;;;5073686;28;20495;-74
2021/03/31 06:53:08;;;;;;;18.60;9.93;;;11.70;60.50;;;;;;5073855;28;20425;-74
2021/03/31 06:55:35;;;;;;;14.77;9.87;;;11.80;59.60;;;;;;5073661;28;20472;-74
2021/03/31 06:58:04;;;;;;;15.37;8.97;;;11.90;59.30;;;;;;5073727;28;20449;-74
2021/03/31 07:00:31;;;;;;;14.70;9.47;;;12.10;59.10;;;;;;5073718;28;20444;-74
2021/03/31 07:03:02;;;;;;;17.53;9.07;;;12.20;58.60;;;;;;5072961;28;20447;-74
2021/03/31 07:05:29;;;;;;;19.53;10.97;;;12.30;58.20;;;;;;5074447;28;20881;-74
2021/03/31 07:08:02;;;;;;;18.20;10.80;;;12.50;58.00;;;;;;5073300;28;20543;-74
2021/03/31 07:10:29;;;;;;;13.90;9.73;;;12.60;57.80;;;;;;5073645;28;20460;-75
2021/03/31 07:12:56;;;;;;;11.73;9.30;;;12.80;57.30;;;;;;5073850;28;21000;-74
2021/03/31 07:15:24;;;;;;;12.13;9.40;;;12.90;57.00;;;;;;5073415;28;20471;-74
2021/03/31 07:17:55;;;;;;;16.63;11.23;;;13.10;56.90;;;;;;5073523;28;20436;-74
2021/03/31 07:20:23;;;;;;;15.10;10.80;;;13.20;56.80;;;;;;5073446;28;20440;-74
2021/03/31 07:22:49;;;;;;;19.33;11.30;;;13.40;56.80;;;;;;5073486;28;20433;-74
2021/03/31 07:25:17;;;;;;;15.57;11.20;;;13.50;56.30;;;;;;5072921;28;20999;-74
2021/03/31 07:27:44;;;;;;;20.40;12.43;;;13.70;56.10;;;;;;5073106;28;20456;-74
2021/03/31 07:30:15;;;;;;;17.33;12.30;;;13.80;55.90;;;;;;5073398;28;20425;-74
2021/03/31 07:32:51;;;;;;;18.47;12.60;;;14.00;55.50;;;;;;5073366;28;20468;-74
2021/03/31 07:35:19;;;;;;;22.23;12.87;;;14.20;55.00;;;;;;5073298;28;20460;-74
2021/03/31 07:37:47;;;;;;;21.43;13.70;;;14.30;54.70;;;;;;5073362;28;20454;-74
2021/03/31 07:40:16;;;;;;;18.40;11.90;;;14.50;54.60;;;;;;5073247;28;20451;-74
2021/03/31 07:42:47;;;;;;;19.80;12.93;;;14.70;54.10;;;;;;5073358;28;20432;-75
2021/03/31 07:45:17;;;;;;;17.93;12.50;;;14.90;53.90;;;;;;5073148;28;20535;-74
2021/03/31 07:47:45;;;;;;;20.07;12.20;;;15.10;53.40;;;;;;5073184;28;20445;-74
2021/03/31 07:50:13;;;;;;;20.53;13.47;;;15.30;53.10;;;;;;5073141;28;20457;-74
2021/03/31 07:52:50;;;;;;;17.90;11.70;;;15.40;52.40;;;;;;5073821;28;20445;-75
2021/03/31 07:55:34;;;;;;;18.10;12.50;;;15.60;52.00;;;;;;5073116;28;20460;-75
2021/03/31 07:58:25;;;;;;;16.13;12.27;;;15.70;51.80;;;;;;5073190;28;20504;-74
2021/03/31 08:01:06;;;;;;;17.23;11.90;;;16.00;51.70;;;;;;5073168;28;20429;-75
2021/03/31 08:03:34;;;;;;;20.07;12.07;;;16.20;51.60;;;;;;5073747;28;20767;-74
2021/03/31 08:06:15;;;;;;;16.67;11.57;;;16.40;51.50;;;;;;5072731;28;20465;-74
2021/03/31 08:09:04;;;;;;;17.90;11.30;;;16.60;51.00;;;;;;5072875;28;20460;-75
2021/03/31 08:12:01;;;;;;;12.13;10.23;;;16.90;50.60;;;;;;5073052;28;20475;-75
2021/03/31 08:14:42;;;;;;;14.70;9.30;;;17.20;50.00;;;;;;5075678;28;20471;-75
2021/03/31 08:17:12;;;;;;;15.83;11.27;;;17.40;49.70;;;;;;5076772;28;20427;-75
2021/03/31 08:19:41;;;;;;;14.63;10.37;;;17.60;49.00;;;;;;5076659;28;20494;-74
2021/03/31 08:22:36;;;;;;;10.73;9.27;;;17.80;48.20;;;;;;5076306;28;20890;-75
2021/03/31 08:25:17;;;;;;;15.17;10.00;;;18.10;48.00;;;;;;5076490;28;20563;-75
2021/03/31 08:27:57;;;;;;;12.10;10.13;;;18.30;48.20;;;;;;5076550;28;20429;-75
2021/03/31 08:30:24;;;;;;;18.90;11.67;;;18.50;48.10;;;;;;5076486;28;20496;-75
2021/03/31 08:32:51;;;;;;;16.00;11.83;;;18.70;48.10;;;;;;5076479;28;20436;-75
2021/03/31 08:35:20;;;;;;;14.20;11.90;;;18.90;47.90;;;;;;5076078;28;20982;-75
2021/03/31 08:37:48;;;;;;;16.40;12.60;;;19.10;47.50;;;;;;5076441;28;20444;-75
2021/03/31 08:40:15;;;;;;;18.23;12.90;;;19.30;46.90;;;;;;5076317;28;20449;-75
2021/03/31 08:42:48;;;;;;;17.73;11.27;;;19.50;46.50;;;;;;5076296;28;20486;-75
2021/03/31 08:45:28;;;;;;;15.50;11.30;;;19.70;45.50;;;;;;5075844;28;20507;-75
2021/03/31 08:47:58;;;;;;;15.33;10.57;;;19.90;45.30;;;;;;5076077;28;20433;-75
2021/03/31 08:50:33;;;;;;;17.00;12.03;;;20.10;45.50;;;;;;5076161;28;20432;-75
2021/03/31 08:53:02;;;;;;;17.43;11.50;;;20.30;45.30;;;;;;5076251;28;20439;-73
2021/03/31 08:55:34;;;;;;;20.90;12.70;;;20.50;45.60;;;;;;5076029;28;20511;-73
2021/03/31 08:58:05;;;;;;;18.40;12.07;;;20.70;45.30;;;;;;5075992;28;20445;-74
2021/03/31 09:00:41;;;;;;;15.03;10.30;;;20.80;44.20;;;;;;5076032;28;20523;-75
2021/03/31 09:03:08;;;;;;;13.40;11.80;;;21.00;44.10;;;;;;5076017;28;20428;-75
2021/03/31 09:05:34;;;;;;;14.73;11.40;;;21.20;44.10;;;;;;5075745;28;20480;-73
2021/03/31 09:08:02;;;;;;;21.07;12.27;;;21.40;43.90;;;;;;5075374;28;20962;-75
2021/03/31 09:10:29;;;;;;;22.10;12.27;;;21.50;43.80;;;;;;5075837;28;20493;-75
2021/03/31 09:12:55;;;;;;;18.60;11.93;;;21.80;43.70;;;;;;5075768;28;20444;-75
2021/03/31 09:15:22;;;;;;;16.83;13.57;;;21.90;43.10;;;;;;5075590;28;20469;-75
2021/03/31 09:17:54;;;;;;;19.93;12.00;;;22.20;43.00;;;;;;5075633;28;20447;-75
2021/03/31 09:20:22;;;;;;;15.50;11.03;;;22.40;42.00;;;;;;5075625;28;20432;-74
2021/03/31 09:22:48;;;;;;;18.93;12.50;;;22.60;41.10;;;;;;5075575;28;20449;-75
2021/03/31 09:25:17;;;;;;;16.70;12.87;;;22.80;40.90;;;;;;5074763;28;20480;-75
2021/03/31 09:27:44;;;;;;;16.13;11.60;;;23.00;40.80;;;;;;5075183;28;20895;-75
2021/03/31 09:30:13;;;;;;;18.00;12.30;;;23.20;39.60;;;;;;5075460;28;20445;-75
2021/03/31 09:32:43;;;;;;;17.00;13.07;;;23.40;39.30;;;;;;5075338;28;20456;-75
2021/03/31 09:35:11;;;;;;;14.77;11.63;;;23.70;39.20;;;;;;5075287;28;20464;-75
2021/03/31 09:37:39;;;;;;;14.33;12.20;;;23.90;38.60;;;;;;5075209;28;20440;-75
2021/03/31 09:40:07;;;;;;;19.53;12.63;;;24.20;38.60;;;;;;5074915;28;20959;-75
2021/03/31 09:42:35;;;;;;;18.30;13.00;;;24.40;37.90;;;;;;5074782;28;20953;-75
2021/03/31 09:45:04;;;;;;;16.83;11.50;;;24.70;37.50;;;;;;5074662;28;20484;-75
2021/03/31 09:47:33;;;;;;;18.97;12.70;;;24.90;37.00;;;;;;5075060;28;20433;-75
2021/03/31 09:50:00;;;;;;;16.57;11.23;;;25.20;36.40;;;;;;5074982;28;20444;-75
2021/03/31 09:52:28;;;;;;;12.33;10.40;;;25.40;35.70;;;;;;5074884;28;20440;-75
2021/03/31 09:54:55;;;;;;;17.10;12.80;;;25.70;35.40;;;;;;5074802;28;20464;-75
2021/03/31 09:57:25;;;;;;;16.47;12.53;;;26.00;35.10;;;;;;5074483;28;20437;-75
2021/03/31 09:59:51;;;;;;;13.83;11.80;;;26.30;34.50;;;;;;5074756;28;20452;-75
2021/03/31 10:02:18;;;;;;;15.07;10.90;;;26.60;33.90;;;;;;5074440;28;20938;-73
2021/03/31 10:04:44;;;;;;;17.30;12.67;;;26.90;33.50;;;;;;5074575;28;20465;-74
2021/03/31 10:07:14;;;;;;;17.43;10.90;;;27.10;33.00;;;;;;5074352;28;20460;-75
2021/03/31 10:09:42;;;;;;;16.30;11.30;;;27.30;32.00;;;;;;5074474;28;20463;-73
2021/03/31 10:12:11;;;;;;;16.57;11.37;;;27.70;31.40;;;;;;5074016;28;20951;-73
2021/03/31 10:14:47;;;;;;;11.83;10.20;;;28.00;30.70;;;;;;5074081;28;20460;-74
2021/03/31 10:17:15;;;;;;;17.60;11.30;;;28.40;30.50;;;;;;5074287;28;20444;-75
2021/03/31 10:19:41;;;;;;;12.10;10.87;;;28.80;29.80;;;;;;5074315;28;20449;-75
2021/03/31 10:22:08;;;;;;;15.83;11.00;;;29.20;29.10;;;;;;5074420;28;20444;-75
2021/03/31 10:24:37;;;;;;;13.70;11.17;;;29.60;28.00;;;;;;5074001;28;21005;-75
2021/03/31 10:27:04;;;;;;;13.93;11.17;;;29.90;27.60;;;;;;5074253;28;20452;-74
2021/03/31 10:29:32;;;;;;;17.83;10.60;;;30.40;27.30;;;;;;5073914;28;20931;-76
2021/03/31 10:32:00;;;;;;;12.57;10.47;;;30.80;26.80;;;;;;5074050;28;20459;-74
2021/03/31 10:34:37;;;;;;;15.50;10.03;;;31.20;26.60;;;;;;5073899;28;20475;-74
2021/03/31 10:37:08;;;;;;;20.63;11.20;;;31.70;25.40;;;;;;5073328;28;20801;-74
2021/03/31 10:51:06;;;;;;;12.77;11.23;;;34.20;22.70;;;;;;5060465;28;20424;-76
2021/03/31 10:53:33;;;;;;;13.43;10.30;;;34.90;22.40;;;;;;5073574;28;20906;-76
2021/03/31 10:56:01;;;;;;;16.07;10.50;;;35.40;21.80;;;;;;5073815;28;20436;-75
2021/03/31 10:58:27;;;;;;;13.07;10.50;;;36.00;21.00;;;;;;5073758;28;20479;-75
2021/03/31 11:00:55;;;;;;;12.03;10.40;;;36.50;21.10;;;;;;5073810;28;20833;-75
2021/03/31 11:03:22;;;;;;;16.03;11.33;;;36.90;19.80;;;;;;5073613;28;20448;-77
2021/03/31 11:05:48;;;;;;;12.57;11.30;;;37.30;19.20;;;;;;5073169;28;20480;-76
2021/03/31 11:08:14;;;;;;;13.13;10.70;;;37.70;18.00;;;;;;5073205;28;20832;-76
2021/03/31 11:10:40;;;;;;;10.43;9.37;;;38.00;17.80;;;;;;5073266;28;20668;-75
2021/03/31 11:13:06;;;;;;;13.03;9.90;;;38.40;18.30;;;;;;5073696;28;20194;-76
2021/03/31 11:15:33;;;;;;;12.50;9.50;;;38.80;18.20;;;;;;5073458;28;20226;-76
2021/03/31 11:18:06;;;;;;;16.90;11.00;;;39.20;17.80;;;;;;5073485;28;20189;-75
2021/03/31 11:20:55;;;;;;;10.98;9.98;;;39.60;17.50;;;;;;5072191;28;20319;-75
2021/03/31 11:26:05;;;;;;;12.10;9.38;;;40.20;16.90;;;;;;5073395;28;20216;-76
2021/03/31 11:28:31;;;;;;;13.32;9.65;;;40.50;16.50;;;;;;5073055;28;20617;-76
2021/03/31 11:30:59;;;;;;;11.88;10.68;;;40.80;16.00;;;;;;5073227;28;20182;-76
2021/03/31 11:33:26;;;;;;;10.02;9.13;;;41.00;15.80;;;;;;5072727;28;20255;-75
2021/03/31 11:35:53;;;;;;;16.08;11.48;;;41.20;15.60;;;;;;5071761;28;20198;-76
2021/03/31 11:38:19;;;;;;;10.77;9.05;;;41.30;14.30;;;;;;5072908;28;20272;-76
2021/03/31 11:40:46;;;;;;;10.88;9.80;;;41.40;14.90;;;;;;5073138;28;20231;-77
2021/03/31 11:43:14;;;;;;;10.80;9.70;;;41.60;15.50;;;;;;5072845;28;20186;-75
2021/03/31 11:45:40;;;;;;;10.88;9.48;;;41.70;13.90;;;;;;5073030;28;20232;-77
2021/03/31 11:48:07;;;;;;;8.80;7.85;;;41.70;14.70;;;;;;5074154;28;20186;-77
2021/03/31 11:50:34;;;;;;;12.07;10.25;;;42.00;14.70;;;;;;5077277;28;20186;-77
2021/03/31 11:53:00;;;;;;;11.27;8.90;;;42.30;14.90;;;;;;5077435;28;20185;-77
2021/03/31 11:55:26;;;;;;;13.02;8.48;;;42.70;15.00;;;;;;5077591;28;20608;-77
2021/03/31 11:57:53;;;;;;;9.77;8.85;;;43.10;14.50;;;;;;5077592;28;20186;-77
2021/03/31 12:00:21;;;;;;;9.98;9.18;;;43.60;14.20;;;;;;5077244;28;20205;-76
2021/03/31 12:02:48;;;;;;;11.25;9.77;;;44.00;13.60;;;;;;5076845;28;20193;-75
2021/03/31 12:05:14;;;;;;;9.57;8.43;;;44.10;12.90;;;;;;5076709;28;20225;-77
2021/03/31 12:07:41;;;;;;;11.45;8.20;;;44.30;12.80;;;;;;5076509;28;20209;-76
2021/03/31 12:10:09;;;;;;;8.45;6.65;;;44.50;13.00;;;;;;5076664;28;20201;-76
2021/03/31 12:12:35;;;;;;;10.32;9.35;;;44.70;13.40;;;;;;5076698;28;20197;-76
2021/03/31 12:15:02;;;;;;;10.55;9.55;;;45.10;13.10;;;;;;5077340;28;20230;-76
2021/03/31 12:17:28;;;;;;;10.88;8.60;;;45.40;12.80;;;;;;5076583;28;20205;-76
2021/03/31 12:19:55;;;;;;;11.50;10.40;;;45.70;12.70;;;;;;5076595;28;20210;-76
2021/03/31 12:22:21;;;;;;;12.88;10.23;;;45.90;11.00;;;;;;5076564;28;20583;-76
2021/03/31 12:24:48;;;;;;;9.55;8.65;;;45.60;10.80;;;;;;5076054;28;20222;-76
2021/03/31 12:27:19;;;;;;;9.52;8.60;;;45.30;11.40;;;;;;5076238;28;20221;-76
2021/03/31 12:29:46;;;;;;;12.82;8.68;;;45.40;12.00;;;;;;5078159;28;20244;-77
2021/03/31 12:32:13;;;;;;;9.63;8.70;;;45.70;12.00;;;;;;5077689;28;20706;-76
2021/03/31 12:34:39;;;;;;;10.32;9.30;;;45.90;11.10;;;;;;5076493;28;20229;-78
2021/03/31 12:37:05;;;;;;;8.57;7.78;;;46.00;11.20;;;;;;5076889;28;20205;-77
2021/03/31 12:39:32;;;;;;;9.25;7.35;;;46.00;11.00;;;;;;5076180;28;20206;-76
2021/03/31 12:42:00;;;;;;;10.20;8.27;;;46.20;11.90;;;;;;5076513;28;20236;-76
2021/03/31 12:44:26;;;;;;;8.15;7.45;;;46.40;11.50;;;;;;5076292;28;20275;-76
2021/03/31 12:46:52;;;;;;;8.02;7.25;;;46.60;11.30;;;;;;5076072;28;20222;-76
2021/03/31 12:49:18;;;;;;;9.30;6.65;;;46.90;11.20;;;;;;5076225;28;20193;-76
2021/03/31 12:51:47;;;;;;;9.10;7.82;;;47.00;10.90;;;;;;5076290;28;20272;-76
2021/03/31 12:54:20;;;;;;;8.07;6.65;;;47.10;10.20;;;;;;5076130;28;20225;-76
2021/03/31 12:56:46;;;;;;;13.52;7.63;;;47.20;10.30;;;;;;5076510;28;20189;-75
2021/03/31 12:59:13;;;;;;;7.65;7.05;;;47.20;11.10;;;;;;5077020;28;20240;-77
2021/03/31 13:01:39;;;;;;;9.13;7.82;;;47.40;11.00;;;;;;5076086;28;20294;-76